createdAt,value
2022-08-07T00:00:28.324Z,46.54
2022-08-07T00:02:58.116Z,47.16
2022-08-07T00:05:26.418Z,45.91
2022-08-07T00:07:59.788Z,46.56
2022-08-07T00:10:31.052Z,45.54
2022-08-07T00:13:23.638Z,48.58
2022-08-07T00:15:52.783Z,48.26
2022-08-07T00:18:24.691Z,48.51
2022-08-07T00:21:03.242Z,50.21
2022-08-07T00:23:32.976Z,49.75
2022-08-07T00:26:13.113Z,49.67
2022-08-07T00:28:55.632Z,50.54
2022-08-07T00:31:38.469Z,48.79
2022-08-07T00:34:09.579Z,48.36
2022-08-07T00:36:42.799Z,48.65
2022-08-07T00:39:17.064Z,48.65
2022-08-07T00:42:01.665Z,50.29
2022-08-07T00:44:30.107Z,48.57
2022-08-07T00:46:59.665Z,49.18
2022-08-07T00:50:19.445Z,48.89
2022-08-07T00:52:14.710Z,48.76
2022-08-07T00:54:45.226Z,47.82
2022-08-07T00:57:13.556Z,48.29
2022-08-07T00:59:42.353Z,47.61
2022-08-07T01:02:20.326Z,47.75
2022-08-07T01:04:58.199Z,47.53
2022-08-07T01:07:28.460Z,47.78
2022-08-07T01:10:06.946Z,48.07
2022-08-07T01:12:44.779Z,48.08
2022-08-07T01:16:00.672Z,48.51
2022-08-07T01:18:17.088Z,48.30
2022-08-07T01:20:59.209Z,47.84
2022-08-07T01:23:36.886Z,47.10
2022-08-07T01:26:14.268Z,47.14
2022-08-07T01:28:48.389Z,46.90
2022-08-07T01:31:42.615Z,46.62
2022-08-07T01:34:15.317Z,46.06
2022-08-07T01:36:44.407Z,46.81
2022-08-07T01:39:24.634Z,47.01
2022-08-07T01:42:40.089Z,45.98
2022-08-07T01:44:58.487Z,47.10
2022-08-07T01:48:21.111Z,46.97
2022-08-07T01:50:16.351Z,46.85
2022-08-07T01:52:58.648Z,47.40
2022-08-07T01:55:28.974Z,47.53
2022-08-07T01:58:05.616Z,47.52
2022-08-07T02:00:51.684Z,46.96
2022-08-07T02:03:42.877Z,47.26
2022-08-07T02:06:31.458Z,47.51
2022-08-07T02:09:08.046Z,47.36
2022-08-07T02:12:04.194Z,47.25
2022-08-07T02:14:40.841Z,47.17
2022-08-07T02:17:27.583Z,47.40
2022-08-07T02:20:04.403Z,47.34
2022-08-07T02:22:41.475Z,46.88
2022-08-07T02:25:17.362Z,47.33
2022-08-07T02:27:55.756Z,47.71
2022-08-07T02:30:24.766Z,47.96
2022-08-07T02:33:07.249Z,47.96
2022-08-07T02:36:30.964Z,47.90
2022-08-07T02:38:35.996Z,47.54
2022-08-07T02:41:06.040Z,47.23
2022-08-07T02:43:39.440Z,46.48
2022-08-07T02:46:09.370Z,46.89
2022-08-07T02:48:38.885Z,47.17
2022-08-07T02:51:42.748Z,47.34
2022-08-07T02:54:13.129Z,47.85
2022-08-07T02:56:42.314Z,47.43
2022-08-07T02:59:15.418Z,47.47
2022-08-07T03:01:47.244Z,47.42
2022-08-07T03:04:23.364Z,47.50
2022-08-07T03:06:53.364Z,47.68
2022-08-07T03:09:42.264Z,47.77
2022-08-07T03:12:21.638Z,48.21
2022-08-07T03:14:56.515Z,48.30
2022-08-07T03:17:24.514Z,48.16
2022-08-07T03:19:55.687Z,47.67
2022-08-07T03:22:30.391Z,48.14
2022-08-07T03:25:00.415Z,48.23
2022-08-07T03:28:08.761Z,47.87
2022-08-07T03:30:24.429Z,47.94
2022-08-07T03:32:58.519Z,47.73
2022-08-07T03:35:43.971Z,47.23
2022-08-07T03:38:21.048Z,46.97
2022-08-07T03:40:53.842Z,47.26
2022-08-07T03:43:32.422Z,46.25
2022-08-07T03:46:03.625Z,46.28
2022-08-07T03:48:45.472Z,46.52
2022-08-07T03:51:47.244Z,45.83
2022-08-07T03:54:36.211Z,45.41
2022-08-07T03:57:08.991Z,45.50
2022-08-07T03:59:46.767Z,45.15
2022-08-07T04:02:28.292Z,45.12
2022-08-07T04:04:59.441Z,45.92
2022-08-07T04:07:36.210Z,44.69
2022-08-07T04:10:15.681Z,45.78
2022-08-07T04:12:49.918Z,45.17
2022-08-07T04:15:19.332Z,45.81
2022-08-07T04:18:57.301Z,47.92
2022-08-07T04:20:38.921Z,49.11
2022-08-07T04:23:25.210Z,48.42
2022-08-07T04:26:14.262Z,48.50
2022-08-07T04:28:47.443Z,49.55
2022-08-07T04:31:20.196Z,49.73
2022-08-07T04:34:03.593Z,49.98
2022-08-07T04:36:31.316Z,49.95
2022-08-07T04:39:02.753Z,48.80
2022-08-07T04:41:30.246Z,48.69
2022-08-07T04:44:14.825Z,46.71
2022-08-07T04:47:08.990Z,45.82
2022-08-07T04:49:57.931Z,44.44
2022-08-07T04:52:51.298Z,42.77
2022-08-07T04:58:14.418Z,39.82
2022-08-07T05:01:45.186Z,33.28
2022-08-07T05:04:31.170Z,33.11
2022-08-07T05:07:19.722Z,34.04
2022-08-07T05:10:11.019Z,34.47
2022-08-07T05:14:44.772Z,36.44
2022-08-07T05:15:54.881Z,35.53
2022-08-07T05:18:37.299Z,32.90
2022-08-07T05:21:10.111Z,33.50
2022-08-07T05:23:50.681Z,32.92
2022-08-07T05:26:24.090Z,31.85
2022-08-07T05:29:04.628Z,31.30
2022-08-07T05:31:39.762Z,29.46
2022-08-07T05:34:16.042Z,29.63
2022-08-07T05:36:54.963Z,29.88
2022-08-07T05:40:13.616Z,28.82
2022-08-07T05:42:34.824Z,29.15
2022-08-07T05:45:26.221Z,30.18
2022-08-07T05:48:03.282Z,29.38
2022-08-07T05:50:42.970Z,28.29
2022-08-07T05:54:12.900Z,26.96
2022-08-07T05:56:05.475Z,26.27
2022-08-07T05:58:39.401Z,27.13
2022-08-07T06:01:12.383Z,27.34
2022-08-07T06:03:57.043Z,27.22
2022-08-07T06:06:34.994Z,28.78
2022-08-07T06:09:06.493Z,30.59
2022-08-07T06:11:39.463Z,30.13
2022-08-07T06:14:11.546Z,28.77
2022-08-07T06:16:50.629Z,26.97
2022-08-07T06:19:52.353Z,26.54
2022-08-07T06:22:23.521Z,25.25
2022-08-07T06:25:25.642Z,25.33
2022-08-07T06:28:15.601Z,24.22
2022-08-07T06:30:59.319Z,25.21
2022-08-07T06:33:29.762Z,25.99
2022-08-07T06:36:13.381Z,27.12
2022-08-07T06:40:13.487Z,27.96
2022-08-07T06:42:02.824Z,27.97
2022-08-07T06:45:18.066Z,28.63
2022-08-07T06:47:58.585Z,29.57
2022-08-07T06:50:50.109Z,31.66
2022-08-07T06:55:27.499Z,31.53
2022-08-07T06:56:17.841Z,30.57
2022-08-07T07:00:13.649Z,28.82
2022-08-07T07:01:50.653Z,29.07
2022-08-07T07:04:28.383Z,30.49
2022-08-07T07:07:18.853Z,30.86
2022-08-07T07:09:48.888Z,30.73
2022-08-07T07:12:31.473Z,29.39
2022-08-07T07:15:03.879Z,28.83
2022-08-07T07:17:52.364Z,29.60
2022-08-07T07:20:35.742Z,29.66
2022-08-07T07:24:11.295Z,29.85
2022-08-07T07:26:32.926Z,29.56
2022-08-07T07:29:38.954Z,29.72
2022-08-07T07:32:09.038Z,28.57
2022-08-07T07:34:41.613Z,30.14
2022-08-07T07:37:22.094Z,30.88
2022-08-07T07:40:10.423Z,31.35
2022-08-07T07:42:53.794Z,31.91
2022-08-07T07:46:39.798Z,31.71
2022-08-07T07:48:24.344Z,30.02
2022-08-07T07:51:08.091Z,28.64
2022-08-07T07:53:52.139Z,27.29
2022-08-07T07:56:30.382Z,26.83
2022-08-07T07:59:03.179Z,28.71
2022-08-07T08:02:03.563Z,28.92
2022-08-07T08:04:36.585Z,29.20
2022-08-07T08:07:09.447Z,30.03
2022-08-07T08:09:52.555Z,28.26
2022-08-07T08:12:52.601Z,28.47
2022-08-07T08:15:23.296Z,28.40
2022-08-07T08:17:58.260Z,28.54
2022-08-07T08:20:32.137Z,28.17
2022-08-07T08:23:23.297Z,26.66
2022-08-07T08:26:28.585Z,24.27
2022-08-07T08:29:00.273Z,24.03
2022-08-07T08:32:10.163Z,24.20
2022-08-07T08:34:33.494Z,23.95
2022-08-07T08:37:09.975Z,22.25
2022-08-07T08:39:58.399Z,22.38
2022-08-07T08:42:32.454Z,22.91
2022-08-07T08:45:04.621Z,22.29
2022-08-07T08:47:52.539Z,22.17
2022-08-07T08:50:39.557Z,20.92
2022-08-07T08:53:32.832Z,21.79
2022-08-07T08:56:04.850Z,22.52
2022-08-07T08:58:50.667Z,24.72
2022-08-07T09:01:43.650Z,23.48
2022-08-07T09:04:28.786Z,24.14
2022-08-07T09:07:23.156Z,23.54
2022-08-07T09:09:58.548Z,23.61
2022-08-07T09:12:37.264Z,23.77
2022-08-07T09:16:22.308Z,23.85
2022-08-07T09:18:52.995Z,23.20
2022-08-07T09:22:10.188Z,21.84
2022-08-07T09:25:14.536Z,21.94
2022-08-07T09:28:03.816Z,22.07
2022-08-07T09:31:01.484Z,21.90
2022-08-07T09:33:56.955Z,22.28
2022-08-07T09:36:36.972Z,22.55
2022-08-07T09:39:27.298Z,22.56
2022-08-07T09:42:09.280Z,22.69
2022-08-07T09:47:25.074Z,21.10
2022-08-07T09:48:06.164Z,21.69
2022-08-07T09:52:10.469Z,22.25
2022-08-07T09:54:16.401Z,21.21
2022-08-07T09:57:15.761Z,20.86
2022-08-07T10:00:00.547Z,20.35
2022-08-07T10:04:05.879Z,20.54
2022-08-07T10:06:55.475Z,19.18
2022-08-07T10:10:02.859Z,19.76
2022-08-07T10:12:33.554Z,19.94
2022-08-07T10:15:44.465Z,19.94
2022-08-07T10:18:35.321Z,20.45
2022-08-07T10:21:19.780Z,20.73
2022-08-07T10:24:39.932Z,21.60
2022-08-07T10:27:52.321Z,22.50
2022-08-07T10:30:44.058Z,21.54
2022-08-07T10:34:14.205Z,21.13
2022-08-07T10:37:14.284Z,19.88
2022-08-07T10:40:05.547Z,19.04
2022-08-07T10:42:46.659Z,18.82
2022-08-07T10:45:44.479Z,18.63
2022-08-07T10:48:41.334Z,18.34
2022-08-07T10:51:57.332Z,17.26
2022-08-07T10:54:24.346Z,17.25
2022-08-07T10:57:34.755Z,18.25
2022-08-07T11:00:36.546Z,19.16
2022-08-07T11:03:42.813Z,19.22
2022-08-07T11:06:42.474Z,19.02
2022-08-07T11:10:10.234Z,17.83
2022-08-07T11:12:38.653Z,17.16
2022-08-07T11:15:31.613Z,16.57
2022-08-07T11:18:03.667Z,17.91
2022-08-07T11:20:48.907Z,18.55
2022-08-07T11:23:30.780Z,17.92
2022-08-07T11:26:27.220Z,18.11
2022-08-07T11:29:42.839Z,17.99
2022-08-07T11:32:40.625Z,18.67
2022-08-07T11:35:26.883Z,18.15
2022-08-07T11:38:21.206Z,18.26
2022-08-07T11:41:29.688Z,19.04
2022-08-07T11:44:24.041Z,19.54
2022-08-07T11:47:10.273Z,20.29
2022-08-07T11:50:11.376Z,20.16
2022-08-07T11:53:05.107Z,20.47
2022-08-07T11:56:24.746Z,21.17
2022-08-07T12:00:07.635Z,21.07
2022-08-07T12:02:31.921Z,20.09
2022-08-07T12:05:28.672Z,20.01
2022-08-07T12:08:26.025Z,20.03
2022-08-07T12:11:22.471Z,19.97
2022-08-07T12:14:08.684Z,19.90
2022-08-07T12:16:47.240Z,19.53
2022-08-07T12:20:04.690Z,19.45
2022-08-07T12:23:11.176Z,19.04
2022-08-07T12:26:02.822Z,19.03
2022-08-07T12:29:02.013Z,18.90
2022-08-07T12:32:05.106Z,18.85
2022-08-07T12:34:39.386Z,18.24
2022-08-07T12:37:16.414Z,17.44
2022-08-07T12:39:50.789Z,17.47
2022-08-07T12:42:27.763Z,17.03
2022-08-07T12:44:59.121Z,17.03
2022-08-07T12:47:44.013Z,17.24
2022-08-07T12:50:40.368Z,17.40
2022-08-07T12:53:23.156Z,17.24
2022-08-07T12:56:26.704Z,17.92
2022-08-07T12:58:58.088Z,17.68
2022-08-07T13:01:49.181Z,17.51
2022-08-07T13:04:49.388Z,17.99
2022-08-07T13:08:12.773Z,17.81
2022-08-07T13:11:10.060Z,17.56
2022-08-07T13:14:02.285Z,17.02
2022-08-07T13:16:39.244Z,17.20
2022-08-07T13:19:53.212Z,17.97
2022-08-07T13:22:36.382Z,17.16
2022-08-07T13:25:15.195Z,17.99
2022-08-07T13:28:11.030Z,16.67
2022-08-07T13:31:13.538Z,16.17
2022-08-07T13:34:32.595Z,16.86
2022-08-07T13:36:45.685Z,16.60
2022-08-07T13:40:34.092Z,16.54
2022-08-07T13:42:24.784Z,17.40
2022-08-07T13:45:20.634Z,17.46
2022-08-07T13:48:05.859Z,17.71
2022-08-07T13:50:55.570Z,18.04
2022-08-07T13:53:36.082Z,16.98
2022-08-07T13:56:19.448Z,16.79
2022-08-07T13:59:12.107Z,17.58
2022-08-07T14:02:03.635Z,18.25
2022-08-07T14:04:48.965Z,18.67
2022-08-07T14:07:26.139Z,19.03
2022-08-07T14:10:02.165Z,18.57
2022-08-07T14:12:53.985Z,18.37
2022-08-07T14:15:50.801Z,18.52
2022-08-07T14:18:28.337Z,18.17
2022-08-07T14:21:21.237Z,18.53
2022-08-07T14:24:07.648Z,19.84
2022-08-07T14:26:50.262Z,20.14
2022-08-07T14:30:06.700Z,21.17
2022-08-07T14:32:13.485Z,21.92
2022-08-07T14:34:46.480Z,22.02
2022-08-07T14:37:17.675Z,22.45
2022-08-07T14:40:18.148Z,22.36
2022-08-07T14:43:54.784Z,22.83
2022-08-07T14:45:49.267Z,23.11
2022-08-07T14:48:20.485Z,23.28
2022-08-07T14:50:53.509Z,23.16
2022-08-07T14:54:05.472Z,23.79
2022-08-07T14:59:13.898Z,24.15
2022-08-07T15:01:58.409Z,24.13
2022-08-07T15:04:29.074Z,24.19
2022-08-07T15:06:58.423Z,24.45
2022-08-07T15:12:30.290Z,23.68
2022-08-07T15:15:07.633Z,23.77
2022-08-07T15:17:54.893Z,24.69
2022-08-07T15:20:54.657Z,24.60
2022-08-07T15:25:14.273Z,24.52
2022-08-07T15:26:20.955Z,24.90
2022-08-07T15:29:00.950Z,24.66
2022-08-07T15:35:04.215Z,24.63
2022-08-07T15:40:34.698Z,24.67
2022-08-07T15:43:53.276Z,24.68
2022-08-07T15:49:15.191Z,24.45
2022-08-07T15:54:39.578Z,24.50
2022-08-07T15:57:27.975Z,24.27
2022-08-07T16:00:31.195Z,23.98
2022-08-07T16:03:04.842Z,23.71
2022-08-07T16:05:36.164Z,23.48
2022-08-07T16:08:33.089Z,23.22
2022-08-07T16:11:26.534Z,22.89
2022-08-07T16:14:09.526Z,23.07
2022-08-07T16:18:01.448Z,23.39
2022-08-07T16:20:42.744Z,23.37
2022-08-07T16:23:13.679Z,23.81
2022-08-07T16:26:14.533Z,23.77
2022-08-07T16:30:08.882Z,23.83
2022-08-07T16:32:01.538Z,23.81
2022-08-07T16:34:49.099Z,23.29
2022-08-07T16:38:03.935Z,23.53
2022-08-07T16:40:57.249Z,23.45
2022-08-07T16:44:03.908Z,23.88
2022-08-07T16:47:07.897Z,23.74
2022-08-07T16:50:29.311Z,23.83
2022-08-07T16:53:20.756Z,23.75
2022-08-07T16:56:14.908Z,24.06
2022-08-07T16:59:14.857Z,23.66
2022-08-07T17:02:52.222Z,23.92
2022-08-07T17:06:01.746Z,23.67
2022-08-07T17:09:04.364Z,23.21
2022-08-07T17:12:04.499Z,23.51
2022-08-07T17:14:42.680Z,23.33
2022-08-07T17:17:46.650Z,23.45
2022-08-07T17:20:38.008Z,23.23
2022-08-07T17:23:32.350Z,23.03
2022-08-07T17:26:23.557Z,23.30
2022-08-07T17:30:12.849Z,22.96
2022-08-07T17:32:14.090Z,23.14
2022-08-07T17:35:50.226Z,23.42
2022-08-07T17:38:32.258Z,23.64
2022-08-07T17:42:02.331Z,23.25
2022-08-07T17:44:33.590Z,23.69
2022-08-07T17:47:42.392Z,23.64
2022-08-07T17:50:42.433Z,23.46
2022-08-07T17:54:01.584Z,23.95
2022-08-07T17:56:28.537Z,23.83
2022-08-07T17:58:56.906Z,23.83
2022-08-07T18:01:50.823Z,23.87
2022-08-07T18:04:30.768Z,24.27
2022-08-07T18:07:20.942Z,24.54
2022-08-07T18:10:10.036Z,24.27
2022-08-07T18:13:16.844Z,24.61
2022-08-07T18:16:32.735Z,24.55
2022-08-07T18:21:11.607Z,24.62
2022-08-07T18:22:15.131Z,24.90
2022-08-07T18:24:51.278Z,24.75
2022-08-07T18:27:49.619Z,25.01
2022-08-07T18:30:31.066Z,25.46
2022-08-07T18:33:26.169Z,25.11
2022-08-07T18:36:01.047Z,25.81
2022-08-07T18:38:58.086Z,25.75
2022-08-07T18:42:04.189Z,25.65
2022-08-07T18:45:42.894Z,25.41
2022-08-07T18:47:45.133Z,25.62
2022-08-07T18:50:39.559Z,25.78
2022-08-07T18:53:39.162Z,26.21
2022-08-07T18:56:34.033Z,26.03
2022-08-07T18:59:46.711Z,26.06
2022-08-07T19:02:42.511Z,26.45
2022-08-07T19:05:23.451Z,26.76
2022-08-07T19:08:07.716Z,27.04
2022-08-07T19:10:52.869Z,26.87
2022-08-07T19:13:29.243Z,26.53
2022-08-07T19:17:00.376Z,26.94
2022-08-07T19:19:34.714Z,27.13
2022-08-07T19:22:18.663Z,27.11
2022-08-07T19:25:06.442Z,26.95
2022-08-07T19:28:29.693Z,27.04
2022-08-07T19:30:57.029Z,27.95
2022-08-07T19:33:34.594Z,27.50
2022-08-07T19:36:05.646Z,27.87
2022-08-07T19:38:53.207Z,27.71
2022-08-07T19:41:44.055Z,27.94
2022-08-07T19:44:22.045Z,28.18
2022-08-07T19:46:57.720Z,27.78
2022-08-07T19:49:58.293Z,27.83
2022-08-07T19:52:27.817Z,27.30
2022-08-07T19:55:00.048Z,27.12
2022-08-07T19:58:00.975Z,27.70
2022-08-07T20:00:38.111Z,27.43
2022-08-07T20:03:33.826Z,26.93
2022-08-07T20:06:05.250Z,27.43
2022-08-07T20:08:37.935Z,27.28
2022-08-07T20:11:10.779Z,27.74
2022-08-07T20:13:51.561Z,27.75
2022-08-07T20:16:35.454Z,28.21
2022-08-07T20:19:10.242Z,28.18
2022-08-07T20:21:46.643Z,28.18
2022-08-07T20:24:30.130Z,28.43
2022-08-07T20:27:03.306Z,28.66
2022-08-07T20:29:48.737Z,28.22
2022-08-07T20:32:25.675Z,28.66
2022-08-07T20:34:58.945Z,28.29
2022-08-07T20:37:55.378Z,28.35
2022-08-07T20:40:33.172Z,29.05
2022-08-07T20:43:09.453Z,29.35
2022-08-07T20:46:27.745Z,29.55
2022-08-07T20:48:34.567Z,29.30
2022-08-07T20:51:09.741Z,29.25
2022-08-07T20:54:03.196Z,29.51
2022-08-07T20:56:33.576Z,29.57
2022-08-07T20:59:05.414Z,29.75
2022-08-07T21:01:45.880Z,30.36
2022-08-07T21:04:28.564Z,30.24
2022-08-07T21:06:58.837Z,29.99
2022-08-07T21:09:52.418Z,29.23
2022-08-07T21:12:30.730Z,29.81
2022-08-07T21:15:03.379Z,29.81
2022-08-07T21:18:03.233Z,30.20
2022-08-07T21:20:29.731Z,30.19
2022-08-07T21:23:08.340Z,30.29
2022-08-07T21:26:24.068Z,29.88
2022-08-07T21:28:59.194Z,30.74
2022-08-07T21:32:41.755Z,30.68
2022-08-07T21:34:48.257Z,30.69
2022-08-07T21:37:24.519Z,30.79
2022-08-07T21:39:59.876Z,30.84
2022-08-07T21:43:11.121Z,31.30
2022-08-07T21:46:08.813Z,30.78
2022-08-07T21:48:56.556Z,30.88
2022-08-07T21:51:33.352Z,30.62
2022-08-07T21:54:50.340Z,30.33
2022-08-07T21:57:44.988Z,29.27
2022-08-07T22:00:26.653Z,29.01
2022-08-07T22:03:31.341Z,29.22
2022-08-07T22:06:06.405Z,29.02
2022-08-07T22:08:52.461Z,29.77
2022-08-07T22:11:22.708Z,30.07
2022-08-07T22:14:00.477Z,30.34
2022-08-07T22:16:43.661Z,30.61
2022-08-07T22:19:29.262Z,30.48
2022-08-07T22:22:21.611Z,31.43
2022-08-07T22:25:07.539Z,32.07
2022-08-07T22:28:30.201Z,32.10
2022-08-07T22:31:56.421Z,31.80
2022-08-07T22:34:53.029Z,32.78
2022-08-07T22:38:04.363Z,32.68
2022-08-07T22:40:30.285Z,33.59
2022-08-07T22:43:07.608Z,33.30
2022-08-07T22:47:01.915Z,33.41
2022-08-07T22:49:39.847Z,33.58
2022-08-07T22:52:58.867Z,33.50
2022-08-07T22:55:56.952Z,33.45
2022-08-07T22:58:52.416Z,33.28
2022-08-07T23:01:49.398Z,33.07
2022-08-07T23:04:57.915Z,33.09
2022-08-07T23:07:52.167Z,32.96
2022-08-07T23:10:37.405Z,32.94
2022-08-07T23:14:10.521Z,33.32
2022-08-07T23:17:20.080Z,33.59
2022-08-07T23:20:51.420Z,33.56
2022-08-07T23:24:06.921Z,34.01
2022-08-07T23:26:54.900Z,34.29
2022-08-07T23:30:37.277Z,34.68
2022-08-07T23:34:36.141Z,34.61
2022-08-07T23:36:39.418Z,34.89
2022-08-07T23:39:41.347Z,34.86
2022-08-07T23:42:53.950Z,35.73
2022-08-07T23:46:02.585Z,35.23
2022-08-07T23:48:36.291Z,35.64
2022-08-07T23:52:53.436Z,35.86
2022-08-07T23:54:36.254Z,35.83
2022-08-07T23:57:28.537Z,35.94
